createdAt,value
2023-03-20T00:01:17.197Z,1007.6
2023-03-20T00:04:17.290Z,1007.61
2023-03-20T00:07:17.191Z,1007.75
2023-03-20T00:10:17.187Z,1007.74
2023-03-20T00:13:17.179Z,1007.78
2023-03-20T00:16:17.240Z,1007.76
2023-03-20T00:19:17.185Z,1007.77
2023-03-20T00:22:17.215Z,1007.82
2023-03-20T00:25:17.180Z,1007.84
2023-03-20T00:28:17.173Z,1007.82
2023-03-20T00:31:17.227Z,1007.85
2023-03-20T00:34:17.192Z,1007.9
2023-03-20T00:37:17.173Z,1007.86
2023-03-20T00:40:17.166Z,1007.87
2023-03-20T00:43:17.169Z,1007.86
2023-03-20T00:46:17.285Z,1007.88
2023-03-20T00:49:17.193Z,1007.89
2023-03-20T00:52:17.176Z,1007.96
2023-03-20T00:55:17.178Z,1007.95
2023-03-20T00:58:17.203Z,1007.98
2023-03-20T01:01:17.280Z,1007.96
2023-03-20T01:04:17.174Z,1008
2023-03-20T01:07:17.163Z,1007.97
2023-03-20T01:10:17.175Z,1007.99
2023-03-20T01:13:17.175Z,1007.95
2023-03-20T01:16:17.282Z,1007.98
2023-03-20T01:19:17.173Z,1007.96
2023-03-20T01:22:17.157Z,1007.97
2023-03-20T01:25:17.157Z,1007.97
2023-03-20T01:28:17.159Z,1007.97
2023-03-20T01:31:17.224Z,1007.95
2023-03-20T01:34:17.161Z,1007.94
2023-03-20T01:37:17.146Z,1007.95
2023-03-20T01:40:17.161Z,1008.03
2023-03-20T01:43:17.153Z,1007.99
2023-03-20T01:46:17.177Z,1007.98
2023-03-20T01:49:17.145Z,1008.01
2023-03-20T01:52:17.147Z,1008.03
2023-03-20T01:55:17.155Z,1008.03
2023-03-20T01:58:17.151Z,1008.02
2023-03-20T02:01:17.199Z,1008.06
2023-03-20T02:04:17.153Z,1008.06
2023-03-20T02:07:17.138Z,1008.05
2023-03-20T02:10:17.137Z,1008.1
2023-03-20T02:13:17.139Z,1008.09
2023-03-20T02:16:17.175Z,1008.12
2023-03-20T02:19:17.143Z,1008.1
2023-03-20T02:22:17.135Z,1008.13
2023-03-20T02:25:17.135Z,1008.13
2023-03-20T02:28:17.131Z,1008.17
2023-03-20T02:31:17.220Z,1008.15
2023-03-20T02:34:17.127Z,1008.18
2023-03-20T02:37:17.128Z,1008.19
2023-03-20T02:40:17.123Z,1008.21
2023-03-20T02:43:17.140Z,1008.21
2023-03-20T02:46:17.226Z,1008.24
2023-03-20T02:49:17.133Z,1008.25
2023-03-20T02:52:17.126Z,1008.26
2023-03-20T02:55:17.138Z,1008.27
2023-03-20T02:58:17.129Z,1008.28
2023-03-20T03:01:17.152Z,1008.31
2023-03-20T03:04:17.127Z,1008.3
2023-03-20T03:07:17.125Z,1008.33
2023-03-20T03:10:17.130Z,1008.3
2023-03-20T03:13:17.122Z,1008.3
2023-03-20T03:16:17.138Z,1008.3
2023-03-20T03:19:17.128Z,1008.29
2023-03-20T03:22:17.131Z,1008.26
2023-03-20T03:25:17.116Z,1008.28
2023-03-20T03:28:17.141Z,1008.29
2023-03-20T03:31:17.176Z,1008.24
2023-03-20T03:34:17.116Z,1008.24
2023-03-20T03:37:17.114Z,1008.29
2023-03-20T03:40:17.108Z,1008.24
2023-03-20T03:43:17.124Z,1008.28
2023-03-20T03:46:17.186Z,1008.28
2023-03-20T03:49:17.116Z,1008.35
2023-03-20T03:52:17.101Z,1008.41
2023-03-20T03:55:17.117Z,1008.42
2023-03-20T03:58:17.106Z,1008.47
2023-03-20T04:01:17.118Z,1008.46
2023-03-20T04:04:17.163Z,1008.52
2023-03-20T04:07:17.108Z,1008.5
2023-03-20T04:10:17.104Z,1008.52
2023-03-20T04:13:17.105Z,1008.51
2023-03-20T04:16:17.228Z,1008.54
2023-03-20T04:19:17.103Z,1008.49
2023-03-20T04:22:17.094Z,1008.52
2023-03-20T04:25:17.105Z,1008.51
2023-03-20T04:28:17.125Z,1008.52
2023-03-20T04:31:17.198Z,1008.62
2023-03-20T04:34:17.121Z,1008.71
2023-03-20T04:37:17.112Z,1008.69
2023-03-20T04:40:17.094Z,1008.63
2023-03-20T04:43:17.121Z,1008.66
2023-03-20T04:46:17.234Z,1008.75
2023-03-20T04:49:17.135Z,1008.79
2023-03-20T04:52:17.122Z,1008.8
2023-03-20T04:55:17.135Z,1008.83
2023-03-20T04:58:17.113Z,1008.86
2023-03-20T05:01:17.151Z,1008.89
2023-03-20T05:04:17.220Z,1008.93
2023-03-20T05:07:17.099Z,1008.93
2023-03-20T05:10:17.124Z,1008.96
2023-03-20T05:13:17.137Z,1008.99
2023-03-20T05:16:17.182Z,1008.98
2023-03-20T05:19:17.087Z,1008.86
2023-03-20T05:22:17.099Z,1008.82
2023-03-20T05:25:17.088Z,1008.76
2023-03-20T05:28:17.087Z,1008.7
2023-03-20T05:31:17.138Z,1008.73
2023-03-20T05:34:17.085Z,1008.62
2023-03-20T05:37:17.106Z,1008.47
2023-03-20T05:40:17.089Z,1008.48
2023-03-20T05:43:17.090Z,1008.55
2023-03-20T05:46:17.142Z,1008.72
2023-03-20T05:49:17.078Z,1008.74
2023-03-20T05:52:17.089Z,1008.63
2023-03-20T05:55:17.126Z,1008.7
2023-03-20T05:58:17.120Z,1008.78
2023-03-20T06:01:17.079Z,1008.83
2023-03-20T06:04:17.095Z,1008.74
2023-03-20T06:07:17.097Z,1008.78
2023-03-20T06:10:17.102Z,1008.74
2023-03-20T06:13:17.082Z,1008.78
2023-03-20T06:16:17.150Z,1008.81
2023-03-20T06:19:17.092Z,1008.77
2023-03-20T06:22:17.089Z,1008.78
2023-03-20T06:25:17.097Z,1008.81
2023-03-20T06:28:17.079Z,1008.86
2023-03-20T06:31:17.143Z,1008.9
2023-03-20T06:34:17.069Z,1008.92
2023-03-20T06:37:17.068Z,1008.89
2023-03-20T06:40:17.077Z,1008.91
2023-03-20T06:43:17.085Z,1008.97
2023-03-20T06:46:17.111Z,1009.05
2023-03-20T06:49:17.100Z,1009.08
2023-03-20T06:52:17.080Z,1009.14
2023-03-20T06:55:17.062Z,1009.07
2023-03-20T06:58:17.074Z,1009.05
2023-03-20T07:01:17.078Z,1009.05
2023-03-20T07:04:17.061Z,1008.97
2023-03-20T07:07:17.084Z,1009.03
2023-03-20T07:10:17.067Z,1009.01
2023-03-20T07:13:17.070Z,1009.08
2023-03-20T07:16:17.114Z,1009.12
2023-03-20T07:19:17.116Z,1009.15
2023-03-20T07:22:17.065Z,1009.12
2023-03-20T07:25:17.065Z,1009.23
2023-03-20T07:28:17.061Z,1009.25
2023-03-20T07:31:17.075Z,1009.27
2023-03-20T07:34:17.049Z,1009.26
2023-03-20T07:37:17.053Z,1009.28
2023-03-20T07:40:17.040Z,1009.29
2023-03-20T07:43:17.058Z,1009.32
2023-03-20T07:46:17.101Z,1009.37
2023-03-20T07:49:17.034Z,1009.37
2023-03-20T07:52:17.047Z,1009.43
2023-03-20T07:55:18.519Z,1009.41
2023-03-20T07:58:17.046Z,1009.41
2023-03-20T08:01:17.029Z,1009.44
2023-03-20T08:04:17.119Z,1009.46
2023-03-20T08:07:17.042Z,1009.42
2023-03-20T08:10:17.050Z,1009.39
2023-03-20T08:13:17.050Z,1009.41
2023-03-20T08:16:17.109Z,1009.46
2023-03-20T08:19:17.033Z,1009.51
2023-03-20T08:22:17.032Z,1009.55
2023-03-20T08:25:17.031Z,1009.65
2023-03-20T08:28:17.026Z,1009.67
2023-03-20T08:31:17.091Z,1009.62
2023-03-20T08:34:17.044Z,1009.68
2023-03-20T08:37:17.054Z,1009.75
2023-03-20T08:40:17.030Z,1009.79
2023-03-20T08:43:17.025Z,1009.78
2023-03-20T08:46:17.116Z,1009.77
2023-03-20T08:49:17.033Z,1009.79
2023-03-20T08:52:17.015Z,1009.79
2023-03-20T08:55:17.013Z,1009.77
2023-03-20T08:58:17.016Z,1009.79
2023-03-20T09:01:17.123Z,1009.8
2023-03-20T09:04:17.012Z,1009.84
2023-03-20T09:07:17.033Z,1009.88
2023-03-20T09:10:17.005Z,1009.93
2023-03-20T09:13:26.504Z,1009.87
2023-03-20T09:16:17.049Z,1009.87
2023-03-20T09:19:17.013Z,1009.87
2023-03-20T09:22:17.013Z,1009.91
2023-03-20T09:25:17.008Z,1009.87
2023-03-20T09:28:17.021Z,1009.87
2023-03-20T09:31:17.107Z,1009.84
2023-03-20T09:34:17.048Z,1009.93
2023-03-20T09:37:17.015Z,1009.94
2023-03-20T09:40:17.016Z,1009.93
2023-03-20T09:43:17.004Z,1009.9
2023-03-20T09:46:17.084Z,1009.85
2023-03-20T09:49:17.002Z,1009.88
2023-03-20T09:52:17.027Z,1009.87
2023-03-20T09:55:17.149Z,1009.84
2023-03-20T09:58:17.072Z,1009.84
2023-03-20T10:01:17.041Z,1009.8
2023-03-20T10:04:17.048Z,1009.86
2023-03-20T10:07:17.023Z,1009.86
2023-03-20T10:10:17.034Z,1009.92
2023-03-20T10:13:17.032Z,1009.99
2023-03-20T10:16:17.045Z,1009.96
2023-03-20T10:19:17.029Z,1009.92
2023-03-20T10:22:17.032Z,1009.93
2023-03-20T10:25:17.021Z,1009.88
2023-03-20T10:28:17.016Z,1009.94
2023-03-20T10:31:17.130Z,1009.89
2023-03-20T10:34:17.028Z,1009.89
2023-03-20T10:37:17.117Z,1009.88
2023-03-20T10:40:17.011Z,1009.85
2023-03-20T10:43:17.044Z,1009.85
2023-03-20T10:46:17.049Z,1009.8
2023-03-20T10:49:16.996Z,1009.79
2023-03-20T10:52:17.010Z,1009.77
2023-03-20T10:55:17.009Z,1009.71
2023-03-20T10:58:16.994Z,1009.67
2023-03-20T11:01:17.321Z,1009.65
2023-03-20T11:04:17.069Z,1009.65
2023-03-20T11:07:17.009Z,1009.62
2023-03-20T11:10:17.161Z,1009.55
2023-03-20T11:13:17.022Z,1009.58
2023-03-20T11:16:17.077Z,1009.58
2023-03-20T11:19:17.005Z,1009.53
2023-03-20T11:22:17.002Z,1009.59
2023-03-20T11:25:17.033Z,1009.56
2023-03-20T11:28:16.994Z,1009.57
2023-03-20T11:31:17.012Z,1009.53
2023-03-20T11:34:16.995Z,1009.47
2023-03-20T11:37:16.990Z,1009.48
2023-03-20T11:40:16.989Z,1009.42
2023-03-20T11:43:17.041Z,1009.42
2023-03-20T11:46:17.114Z,1009.34
2023-03-20T11:49:16.997Z,1009.29
2023-03-20T11:52:16.977Z,1009.3
2023-03-20T11:55:17.224Z,1009.22
2023-03-20T11:58:17.184Z,1009.18
2023-03-20T12:01:17.170Z,1009.16
2023-03-20T12:04:17.187Z,1009.14
2023-03-20T12:07:17.201Z,1009.1
2023-03-20T12:10:17.227Z,1009.04
2023-03-20T12:13:17.186Z,1008.99
2023-03-20T12:16:17.258Z,1008.97
2023-03-20T12:19:17.164Z,1008.97
2023-03-20T12:22:17.162Z,1008.9
2023-03-20T12:25:17.157Z,1008.86
2023-03-20T12:28:17.147Z,1008.88
2023-03-20T12:31:17.224Z,1008.85
2023-03-20T12:34:17.154Z,1008.85
2023-03-20T12:37:17.162Z,1008.85
2023-03-20T12:40:17.189Z,1008.75
2023-03-20T12:43:17.149Z,1008.71
2023-03-20T12:46:17.202Z,1008.69
2023-03-20T12:49:17.173Z,1008.65
2023-03-20T12:52:17.175Z,1008.64
2023-03-20T12:55:17.188Z,1008.58
2023-03-20T12:58:17.157Z,1008.55
2023-03-20T13:01:17.246Z,1008.52
2023-03-20T13:04:17.175Z,1008.47
2023-03-20T13:07:17.173Z,1008.42
2023-03-20T13:10:17.217Z,1008.47
2023-03-20T13:13:17.146Z,1008.46
2023-03-20T13:16:17.247Z,1008.4
2023-03-20T13:19:17.151Z,1008.38
2023-03-20T13:22:17.300Z,1008.29
2023-03-20T13:25:17.228Z,1008.29
2023-03-20T13:28:17.160Z,1008.24
2023-03-20T13:31:17.220Z,1008.19
2023-03-20T13:34:17.158Z,1008.18
2023-03-20T13:37:23.625Z,1008.14
2023-03-20T13:40:17.159Z,1008.19
2023-03-20T13:43:17.158Z,1008.22
2023-03-20T13:46:17.148Z,1008.22
2023-03-20T13:49:17.140Z,1008.26
2023-03-20T13:52:17.153Z,1008.22
2023-03-20T13:55:17.385Z,1008.19
2023-03-20T13:58:17.139Z,1008.18
2023-03-20T14:01:17.186Z,1008.21
2023-03-20T14:04:17.208Z,1008.13
2023-03-20T14:07:17.127Z,1008.08
2023-03-20T14:10:17.129Z,1008.05
2023-03-20T14:13:17.149Z,1008.04
2023-03-20T14:16:17.121Z,1008
2023-03-20T14:19:17.133Z,1008.02
2023-03-20T14:22:17.125Z,1008
2023-03-20T14:25:17.132Z,1008.01
2023-03-20T14:28:17.257Z,1008.01
2023-03-20T14:31:17.139Z,1007.97
2023-03-20T14:34:17.145Z,1007.99
2023-03-20T14:37:17.121Z,1008.03
2023-03-20T14:40:17.142Z,1008
2023-03-20T14:43:17.470Z,1008.09
2023-03-20T14:46:17.133Z,1008.07
2023-03-20T14:49:17.123Z,1008.03
2023-03-20T14:52:17.122Z,1008.09
2023-03-20T14:55:17.143Z,1008.09
2023-03-20T14:58:17.116Z,1008.11
2023-03-20T15:01:19.563Z,1008.06
2023-03-20T15:04:17.155Z,1008.12
2023-03-20T15:07:17.162Z,1008.1
2023-03-20T15:10:19.418Z,1008.13
2023-03-20T15:13:17.121Z,1008.16
2023-03-20T15:16:17.113Z,1008.13
2023-03-20T15:19:17.105Z,1008.14
2023-03-20T15:22:17.128Z,1008.06
2023-03-20T15:25:17.106Z,1008.04
2023-03-20T15:28:19.402Z,1008.05
2023-03-20T15:31:17.119Z,1008.09
2023-03-20T15:34:17.110Z,1008.1
2023-03-20T15:37:17.101Z,1008.1
2023-03-20T15:40:17.113Z,1008.09
2023-03-20T15:43:17.118Z,1008.11
2023-03-20T15:46:18.914Z,1008.1
2023-03-20T15:49:17.110Z,1008.11
2023-03-20T15:52:17.110Z,1008.09
2023-03-20T15:55:17.105Z,1008.07
2023-03-20T15:58:17.126Z,1008.15
2023-03-20T16:01:17.186Z,1008.17
2023-03-20T16:04:17.127Z,1008.12
2023-03-20T16:07:17.094Z,1008.09
2023-03-20T16:10:17.097Z,1008.14
2023-03-20T16:13:17.123Z,1008.16
2023-03-20T16:16:17.205Z,1008.18
2023-03-20T16:19:17.108Z,1008.21
2023-03-20T16:22:17.094Z,1008.23
2023-03-20T16:25:17.100Z,1008.25
2023-03-20T16:28:17.092Z,1008.26
2023-03-20T16:31:17.207Z,1008.3
2023-03-20T16:34:17.098Z,1008.29
2023-03-20T16:37:17.112Z,1008.3
2023-03-20T16:40:17.098Z,1008.34
2023-03-20T16:43:17.112Z,1008.31
2023-03-20T16:46:17.107Z,1008.26
2023-03-20T16:49:17.087Z,1008.25
2023-03-20T16:52:17.132Z,1008.31
2023-03-20T16:55:17.090Z,1008.36
2023-03-20T16:58:17.083Z,1008.45
2023-03-20T17:01:17.142Z,1008.52
2023-03-20T17:04:17.183Z,1008.52
2023-03-20T17:07:17.094Z,1008.5
2023-03-20T17:10:17.090Z,1008.47
2023-03-20T17:13:17.087Z,1008.55
2023-03-20T17:16:17.174Z,1008.58
2023-03-20T17:19:17.091Z,1008.54
2023-03-20T17:22:17.094Z,1008.59
2023-03-20T17:25:17.098Z,1008.61
2023-03-20T17:28:17.054Z,1008.68
2023-03-20T17:31:17.118Z,1008.71
2023-03-20T17:34:17.124Z,1008.69
2023-03-20T17:37:17.094Z,1008.75
2023-03-20T17:40:17.138Z,1008.7
2023-03-20T17:43:17.109Z,1008.72
2023-03-20T17:46:17.132Z,1008.71
2023-03-20T17:49:17.072Z,1008.69
2023-03-20T17:52:17.130Z,1008.78
2023-03-20T17:55:17.072Z,1008.81
2023-03-20T17:58:17.074Z,1008.79
2023-03-20T18:01:17.170Z,1008.86
2023-03-20T18:04:17.116Z,1008.85
2023-03-20T18:07:17.100Z,1008.86
2023-03-20T18:10:17.100Z,1008.88
2023-03-20T18:13:17.068Z,1008.88
2023-03-20T18:16:17.131Z,1008.89
2023-03-20T18:19:17.063Z,1008.89
2023-03-20T18:22:17.056Z,1008.9
2023-03-20T18:25:17.080Z,1008.9
2023-03-20T18:28:17.068Z,1008.93
2023-03-20T18:31:17.115Z,1008.91
2023-03-20T18:34:17.064Z,1008.85
2023-03-20T18:37:17.092Z,1008.85
2023-03-20T18:40:17.102Z,1008.86
2023-03-20T18:43:17.074Z,1008.82
2023-03-20T18:46:17.154Z,1008.85
2023-03-20T18:49:17.211Z,1008.83
2023-03-20T18:52:17.072Z,1008.79
2023-03-20T18:55:17.062Z,1008.8
2023-03-20T18:58:17.084Z,1008.8
2023-03-20T19:01:17.085Z,1008.72
2023-03-20T19:04:17.115Z,1008.72
2023-03-20T19:07:17.060Z,1008.73
2023-03-20T19:10:17.076Z,1008.81
2023-03-20T19:13:17.075Z,1008.82
2023-03-20T19:16:17.145Z,1008.8
2023-03-20T19:19:17.083Z,1008.79
2023-03-20T19:22:28.887Z,1008.8
2023-03-20T19:25:17.093Z,1008.82
2023-03-20T19:28:20.378Z,1008.81
2023-03-20T19:31:17.114Z,1008.83
2023-03-20T19:34:47.345Z,1008.83
2023-03-20T19:37:17.049Z,1008.82
2023-03-20T19:40:17.073Z,1008.82
2023-03-20T19:43:17.065Z,1008.79
2023-03-20T19:46:25.473Z,1008.84
2023-03-20T19:49:17.976Z,1008.87
2023-03-20T19:52:17.078Z,1008.87
2023-03-20T19:55:17.059Z,1008.89
2023-03-20T19:58:17.062Z,1008.89
2023-03-20T20:01:17.781Z,1008.91
2023-03-20T20:04:17.077Z,1008.96
2023-03-20T20:07:56.073Z,1009
2023-03-20T20:10:17.068Z,1008.93
2023-03-20T20:13:17.057Z,1008.85
2023-03-20T20:16:17.066Z,1008.85
2023-03-20T20:19:17.049Z,1008.81
2023-03-20T20:22:25.094Z,1008.84
2023-03-20T20:25:17.044Z,1008.83
2023-03-20T20:28:17.047Z,1008.82
2023-03-20T20:31:17.098Z,1008.75
2023-03-20T20:35:14.692Z,1008.8
2023-03-20T20:40:17.201Z,1008.77
2023-03-20T20:43:39.226Z,1008.81
2023-03-20T20:46:17.067Z,1008.85
2023-03-20T20:49:19.716Z,1008.86
2023-03-20T20:52:17.031Z,1008.82
2023-03-20T20:55:22.798Z,1008.86
2023-03-20T20:58:17.030Z,1008.85
2023-03-20T21:01:17.054Z,1008.8
2023-03-20T21:04:17.028Z,1008.83
2023-03-20T21:07:17.057Z,1008.85
2023-03-20T21:10:17.028Z,1008.83
2023-03-20T21:13:17.047Z,1008.87
2023-03-20T21:16:17.071Z,1008.85
2023-03-20T21:19:17.125Z,1008.86
2023-03-20T21:22:17.036Z,1008.9
2023-03-20T21:25:18.626Z,1008.9
2023-03-20T21:28:17.067Z,1008.9
2023-03-20T21:31:25.113Z,1008.89
2023-03-20T21:34:17.018Z,1008.88
2023-03-20T21:38:22.752Z,1008.86
2023-03-20T21:40:17.023Z,1008.86
2023-03-20T21:43:17.041Z,1008.87
2023-03-20T21:47:03.812Z,1008.86
2023-03-20T21:49:58.648Z,1008.86
2023-03-20T21:53:06.689Z,1008.84
2023-03-20T21:58:53.707Z,1008.82
2023-03-20T22:02:00.810Z,1008.83
2023-03-20T22:05:16.765Z,1008.82
2023-03-20T22:08:00.937Z,1008.83
2023-03-20T22:11:10.559Z,1008.76
2023-03-20T22:14:08.958Z,1008.75
2023-03-20T22:17:09.293Z,1008.75
2023-03-20T22:20:07.686Z,1008.71
2023-03-20T22:23:04.718Z,1008.73
2023-03-20T22:25:52.944Z,1008.73
2023-03-20T22:29:21.115Z,1008.7
2023-03-20T22:32:10.672Z,1008.7
2023-03-20T22:34:46.351Z,1008.69
2023-03-20T22:37:53.260Z,1008.63
2023-03-20T22:44:13.597Z,1008.59
2023-03-20T22:46:42.114Z,1008.62
2023-03-20T22:49:17.089Z,1008.62
2023-03-20T22:52:26.957Z,1008.6
2023-03-20T22:55:17.288Z,1008.57
2023-03-20T22:58:17.098Z,1008.55
2023-03-20T23:01:17.149Z,1008.56
2023-03-20T23:04:17.113Z,1008.52
2023-03-20T23:07:17.100Z,1008.49
2023-03-20T23:10:17.122Z,1008.46
2023-03-20T23:13:17.089Z,1008.49
2023-03-20T23:16:17.178Z,1008.51
2023-03-20T23:19:17.075Z,1008.49
2023-03-20T23:22:17.093Z,1008.49
2023-03-20T23:25:27.340Z,1008.49
2023-03-20T23:28:17.079Z,1008.48
2023-03-20T23:31:17.210Z,1008.49
2023-03-20T23:34:18.129Z,1008.51
2023-03-20T23:37:17.079Z,1008.47
2023-03-20T23:40:17.077Z,1008.47
2023-03-20T23:43:17.100Z,1008.41
2023-03-20T23:46:17.097Z,1008.4
2023-03-20T23:49:17.136Z,1008.33
2023-03-20T23:52:17.079Z,1008.34
2023-03-20T23:55:17.072Z,1008.33
2023-03-20T23:58:17.081Z,1008.31
